Weather History for Benton Harbor, MI

Change the Weather History Date:

Monday, January 21, 2013

  Actual Average Record
Temperature  
Mean Temperature 14 °F -  
Max Temperature 19 °F 32 °F 50 °F (1957)
Min Temperature 8 °F 17 °F -13 °F (1984)
Degree Days  
Heating Degree Days 52    
Moisture  
Dew Point 4 °F    
Average Humidity 70    
Maximum Humidity 85    
Minimum Humidity 57    
Precipitation  
Precipitation 0.00 in - - ()
Sea Level Pressure  
Sea Level Pressure 30.11 in    
Wind  
Wind Speed 15 mph (WNW)    
Max Wind Speed 23 mph    
Max Gust Speed 32 mph    
Visibility 2 miles    
Events Fog , Snow    
Averages and records for this station are not official NWS values.
T = Trace of Precipitation, MM = Missing Value Source: NWS Daily Summary

Daily Weather History Graph

Daily Weather History Graph

Search for Another Location

Airport:

Trip Planner

Search our weather history database for the weather conditions in past years. The results will help you decide how hot, cold, wet, or windy it might be!

Date:

Astronomy

Jan. 21, 2013 Rise Set
Actual Time 8:08 AM EST 5:46 PM EST
Civil Twilight 7:37 AM EST 6:17 PM EST
Nautical Twilight 7:03 AM EST 6:51 PM EST
Astronomical Twilight 6:30 AM EST 7:24 PM EST
Moon 1:25 PM EST (1/21) 3:36 AM EST (1/21)
Length of Visible Light 10h 39m
Length of Day
9h 38m
Waxing Gibbous, 75% of the Moon is Illuminated
Jan 21
Waxing Gibbous
Jan 26
Full
Feb 3
Last Quarter
Feb 10
New
Feb 17
First Quarter

Hourly Weather History & Observations

Time (EST) Temp. Windchill Dew Point Humidity Pressure Visibility Wind Dir Wind Speed Gust Speed Precip Events Conditions
12:53 AM 19.9 °F 9.3 °F 7.0 °F 57% 30.18 in 10.0 mi WNW 9.2 mph - N/A   Overcast
1:53 AM 19.9 °F 10.1 °F 8.1 °F 60% 30.15 in 10.0 mi WNW 8.1 mph - N/A   Overcast
2:53 AM 19.0 °F 5.6 °F 8.1 °F 62% 30.15 in 10.0 mi West 13.8 mph - 0.00 in   Overcast
3:53 AM 19.0 °F 7.5 °F 8.1 °F 62% 30.13 in 10.0 mi West 10.4 mph 20.7 mph N/A   Overcast
4:53 AM 18.0 °F 3.1 °F 8.1 °F 65% 30.11 in 10.0 mi West 16.1 mph 24.2 mph N/A   Overcast
5:48 AM 17.6 °F 5.0 °F 10.4 °F 73% 30.07 in 2.5 mi WNW 11.5 mph - 0.00 in Snow Light Snow
5:53 AM 17.1 °F 4.3 °F 10.0 °F 74% 30.10 in 1.5 mi WNW 11.5 mph 19.6 mph 0.00 in Snow Light Snow
6:00 AM 17.6 °F 4.3 °F 12.2 °F 79% 30.06 in 1.0 mi West 12.7 mph - 0.00 in Snow Light Snow
6:20 AM 17.6 °F 1.7 °F 10.4 °F 73% 30.06 in 1.5 mi West 18.4 mph 24.2 mph 0.00 in Snow Light Snow
6:33 AM 17.6 °F 1.7 °F 10.4 °F 73% 30.06 in 2.0 mi West 18.4 mph 23.0 mph 0.00 in Snow Light Snow
6:53 AM 17.1 °F 0.6 °F 10.0 °F 74% 30.10 in 2.0 mi West 19.6 mph 24.2 mph 0.00 in Snow Light Snow
7:03 AM 17.6 °F 2.7 °F 8.6 °F 68% 30.06 in 6.0 mi West 16.1 mph 25.3 mph 0.00 in Snow Light Snow
7:10 AM 15.8 °F 0.3 °F 10.4 °F 79% 30.06 in 1.8 mi West 16.1 mph 24.2 mph 0.00 in Snow Light Snow
7:18 AM 15.8 °F -0.2 °F 10.4 °F 79% 30.06 in 1.0 mi West 17.3 mph 24.2 mph 0.00 in Snow Light Snow
7:24 AM 15.8 °F -0.6 °F 8.6 °F 73% 30.06 in 2.0 mi West 18.4 mph 25.3 mph 0.00 in Snow Light Snow
7:33 AM 15.8 °F -1.9 °F 8.6 °F 73% 30.07 in 3.0 mi West 21.9 mph 31.1 mph 0.00 in Snow Light Snow
7:42 AM 15.8 °F 0.3 °F 6.8 °F 68% 30.06 in 2.5 mi West 16.1 mph 28.8 mph 0.00 in Snow Light Snow
7:51 AM 15.8 °F -1.1 °F 8.6 °F 73% 30.06 in 1.2 mi West 19.6 mph 28.8 mph 0.00 in Snow Light Snow
7:53 AM 15.1 °F -2.0 °F 9.0 °F 77% 30.09 in 1.0 mi West 19.6 mph 28.8 mph 0.00 in Snow Light Snow
8:03 AM 15.8 °F -1.1 °F 8.6 °F 73% 30.06 in 2.0 mi West 19.6 mph 26.5 mph 0.00 in Snow Light Snow
8:12 AM 15.8 °F -1.5 °F 3.2 °F 58% 30.06 in 5.0 mi West 20.7 mph 25.3 mph 0.00 in Snow Light Snow
8:27 AM 15.8 °F -0.2 °F 6.8 °F 68% 30.06 in 5.0 mi West 17.3 mph 25.3 mph 0.00 in Snow Light Snow
8:39 AM 15.8 °F 1.4 °F 6.8 °F 68% 30.06 in 1.8 mi West 13.8 mph 29.9 mph 0.00 in Snow Light Snow
8:47 AM 15.8 °F -1.5 °F 5.0 °F 62% 30.06 in 3.0 mi West 20.7 mph 28.8 mph 0.00 in Snow Light Snow
8:50 AM 15.8 °F -1.9 °F 5.0 °F 62% 30.07 in 2.5 mi West 21.9 mph 28.8 mph 0.00 in Snow Light Snow
8:53 AM 14.0 °F -3.4 °F 6.1 °F 71% 30.11 in 1.5 mi West 19.6 mph 28.8 mph 0.00 in Snow Light Snow
9:00 AM 14.0 °F -3.9 °F 6.8 °F 73% 30.07 in 1.2 mi West 20.7 mph 27.6 mph 0.00 in Snow Light Snow
9:11 AM 14.0 °F -2.0 °F 6.8 °F 73% 30.07 in 0.5 mi WNW 16.1 mph 27.6 mph 0.00 in Snow Snow
9:15 AM 14.0 °F -1.4 °F 6.8 °F 73% 30.07 in 1.0 mi West 15.0 mph 26.5 mph 0.00 in Snow Light Snow
9:27 AM 14.0 °F -1.4 °F 6.8 °F 73% 30.08 in 2.0 mi WNW 15.0 mph 24.2 mph 0.00 in Snow Light Snow
9:42 AM 14.0 °F -0.8 °F 6.8 °F 73% 30.08 in 1.2 mi West 13.8 mph 23.0 mph 0.00 in Snow Light Snow
9:49 AM 14.0 °F -0.8 °F 8.6 °F 79% 30.08 in 0.5 mi WNW 13.8 mph 28.8 mph 0.00 in Snow Snow
9:53 AM 14.0 °F -4.3 °F 9.0 °F 80% 30.12 in 0.5 mi West 21.9 mph 29.9 mph 0.00 in Snow Snow
10:06 AM 12.2 °F -5.3 °F 8.6 °F 85% 30.08 in 0.2 mi West 18.4 mph 27.6 mph 0.00 in Snow Heavy Snow
10:20 AM 14.0 °F -0.2 °F 6.8 °F 73% 30.09 in 1.0 mi WNW 12.7 mph 23.0 mph 0.00 in Snow Light Snow
10:23 AM 14.0 °F -0.8 °F 5.0 °F 67% 30.09 in 2.5 mi WNW 13.8 mph 23.0 mph 0.00 in Snow Light Snow
10:26 AM 14.0 °F -3.4 °F 3.2 °F 62% 30.09 in 6.0 mi WNW 19.6 mph 29.9 mph 0.00 in Snow Light Snow
10:44 AM 15.8 °F -0.6 °F 3.2 °F 58% 30.09 in 10.0 mi West 18.4 mph 26.5 mph 0.00 in   Overcast
10:53 AM 14.0 °F -2.0 °F 1.9 °F 59% 30.13 in 10.0 mi WNW 16.1 mph 24.2 mph 0.00 in   Overcast
11:19 AM 14.0 °F -1.4 °F 5.0 °F 67% 30.09 in 2.5 mi WNW 15.0 mph 27.6 mph 0.00 in Snow Light Snow
11:23 AM 14.0 °F -4.3 °F 3.2 °F 62% 30.09 in 3.0 mi West 21.9 mph 27.6 mph 0.00 in Snow Light Snow
11:30 AM 12.2 °F -4.3 °F 3.2 °F 67% 30.09 in 1.8 mi WNW 16.1 mph 27.6 mph 0.00 in Snow Light Snow
11:36 AM 12.2 °F -3.7 °F 6.8 °F 79% 30.10 in 0.8 mi WNW 15.0 mph 26.5 mph 0.00 in Snow Light Snow
11:43 AM 12.2 °F -3.1 °F 6.8 °F 79% 30.09 in 0.2 mi WNW 13.8 mph 23.0 mph 0.00 in Snow Heavy Snow
11:50 AM 12.2 °F -3.1 °F 6.8 °F 79% 30.09 in 0.2 mi WNW 13.8 mph 23.0 mph 0.00 in Snow Heavy Snow
11:53 AM 12.9 °F -2.2 °F 6.1 °F 74% 30.13 in 0.5 mi WNW 13.8 mph 20.7 mph 0.00 in Snow Snow
11:56 AM 12.2 °F -3.7 °F 6.8 °F 79% 30.09 in 1.0 mi WNW 15.0 mph 23.0 mph 0.00 in Snow Light Snow
12:04 PM 12.2 °F -3.7 °F 5.0 °F 73% 30.09 in 1.5 mi WNW 15.0 mph 23.0 mph 0.00 in Snow Light Snow
12:10 PM 12.2 °F -1.8 °F 3.2 °F 67% 30.09 in 3.0 mi WNW 11.5 mph 24.2 mph 0.00 in Snow Light Snow
12:18 PM 12.2 °F -3.1 °F 3.2 °F 67% 30.09 in 1.2 mi WNW 13.8 mph 21.9 mph 0.00 in Snow Light Snow
12:25 PM 12.2 °F -1.0 °F 6.8 °F 79% 30.08 in 0.5 mi WNW 10.4 mph 19.6 mph 0.00 in Snow Snow
12:45 PM 12.2 °F -3.7 °F 6.8 °F 79% 30.08 in 0.2 mi WNW 15.0 mph 25.3 mph 0.00 in Snow Heavy Snow
12:53 PM 12.0 °F -2.7 °F 7.0 °F 80% 30.11 in 0.2 mi West 12.7 mph 23.0 mph 0.00 in Snow Heavy Snow
1:00 PM 14.0 °F -2.5 °F 6.8 °F 73% 30.07 in 1.0 mi West 17.3 mph 25.3 mph 0.00 in Snow Light Snow
1:03 PM 14.0 °F -2.5 °F 3.2 °F 62% 30.07 in 2.5 mi West 17.3 mph 25.3 mph 0.00 in Snow Light Snow
1:08 PM 14.0 °F -2.0 °F 3.2 °F 62% 30.07 in 1.2 mi WNW 16.1 mph 26.5 mph 0.00 in Snow Light Snow
1:10 PM 12.2 °F -4.3 °F 6.8 °F 79% 30.07 in 0.5 mi WNW 16.1 mph 26.5 mph 0.00 in Snow Snow
1:24 PM 12.2 °F -5.8 °F 3.2 °F 67% 30.07 in 0.8 mi West 19.6 mph 28.8 mph 0.00 in Snow Light Snow
1:26 PM 12.2 °F -5.8 °F 3.2 °F 67% 30.07 in 1.8 mi West 19.6 mph 28.8 mph 0.00 in Snow Light Snow
1:28 PM 12.2 °F -4.8 °F 1.4 °F 62% 30.07 in 3.0 mi WNW 17.3 mph 28.8 mph 0.00 in Snow Light Snow
1:39 PM 12.2 °F -5.8 °F 3.2 °F 67% 30.07 in 1.2 mi WNW 19.6 mph 31.1 mph 0.00 in Snow Light Snow
1:41 PM 12.2 °F -5.3 °F 6.8 °F 79% 30.07 in 0.5 mi WNW 18.4 mph 31.1 mph 0.00 in Snow Snow
1:51 PM 12.2 °F -5.8 °F 6.8 °F 79% 30.07 in 0.2 mi WNW 19.6 mph 27.6 mph 0.00 in Snow Heavy Snow
1:53 PM 12.0 °F -5.1 °F 6.1 °F 77% 30.11 in 0.2 mi West 17.3 mph 27.6 mph 0.00 in Snow Heavy Snow
1:59 PM 12.2 °F -4.8 °F 3.2 °F 67% 30.08 in 1.0 mi West 17.3 mph 25.3 mph 0.00 in Snow Light Snow
2:01 PM 12.2 °F -5.8 °F 1.4 °F 62% 30.08 in 1.8 mi West 19.6 mph 25.3 mph 0.00 in Snow Light Snow
2:03 PM 12.2 °F -4.3 °F 1.4 °F 62% 30.08 in 3.0 mi West 16.1 mph 25.3 mph 0.00 in Snow Light Snow
2:08 PM 12.2 °F -5.8 °F 3.2 °F 67% 30.08 in 1.5 mi WNW 19.6 mph 26.5 mph 0.00 in Snow Light Snow
2:12 PM 12.2 °F -6.7 °F 5.0 °F 73% 30.09 in 0.8 mi West 21.9 mph 27.6 mph 0.00 in Snow Light Snow
2:19 PM 12.2 °F -3.7 °F 1.4 °F 62% 30.09 in 1.8 mi WNW 15.0 mph 27.6 mph 0.00 in Snow Light Snow
2:21 PM 12.2 °F -4.3 °F 1.4 °F 62% 30.09 in 3.0 mi West 16.1 mph 27.6 mph 0.00 in Snow Light Snow
2:28 PM 12.2 °F -5.8 °F 3.2 °F 67% 30.09 in 1.8 mi WNW 19.6 mph 31.1 mph 0.00 in Snow Light Snow
2:30 PM 12.2 °F -5.8 °F 3.2 °F 67% 30.09 in 0.8 mi WNW 19.6 mph 31.1 mph 0.00 in Snow Light Snow
2:37 PM 10.4 °F -8.2 °F 5.0 °F 79% 30.09 in 0.5 mi West 19.6 mph 29.9 mph 0.00 in Snow Snow
2:51 PM 10.4 °F -6.6 °F 5.0 °F 79% 30.09 in 0.2 mi WNW 16.1 mph 27.6 mph 0.00 in Snow Heavy Snow
2:53 PM 10.9 °F -6.5 °F 5.0 °F 77% 30.13 in 0.2 mi WNW 17.3 mph 26.5 mph 0.00 in Snow Heavy Snow
3:03 PM 10.4 °F -7.2 °F 3.2 °F 73% 30.10 in 0.8 mi WNW 17.3 mph 26.5 mph 0.00 in Snow Light Snow
3:07 PM 10.4 °F -7.7 °F -0.4 °F 62% 30.09 in 1.5 mi West 18.4 mph 26.5 mph 0.00 in Snow Light Snow
3:10 PM 10.4 °F -5.4 °F -0.4 °F 62% 30.10 in 3.0 mi WNW 13.8 mph 26.5 mph 0.00 in Snow Light Snow
3:22 PM 12.2 °F -4.8 °F 1.4 °F 62% 30.10 in 2.5 mi WNW 17.3 mph 26.5 mph 0.00 in Snow Light Snow
3:24 PM 12.2 °F -5.8 °F -0.4 °F 57% 30.10 in 4.0 mi WNW 19.6 mph 26.5 mph 0.00 in Snow Light Snow
3:45 PM 10.4 °F -8.6 °F 1.4 °F 67% 30.11 in 1.5 mi West 20.7 mph 27.6 mph 0.00 in Snow Light Snow
3:49 PM 10.4 °F -8.6 °F 3.2 °F 73% 30.11 in 0.8 mi WNW 20.7 mph 29.9 mph 0.00 in Snow Light Snow
3:53 PM 10.9 °F -4.7 °F 1.9 °F 67% 30.15 in 0.8 mi WNW 13.8 mph 29.9 mph 0.00 in Snow Light Snow
3:57 PM 10.4 °F -2.4 °F 3.2 °F 73% 30.11 in 1.5 mi WNW 9.2 mph 26.5 mph 0.00 in Snow Light Snow
4:05 PM 10.4 °F -6.0 °F -0.4 °F 62% 30.11 in 3.0 mi WNW 15.0 mph 24.2 mph 0.00 in Snow Light Snow
4:10 PM 10.4 °F -6.0 °F 1.4 °F 67% 30.11 in 1.5 mi WNW 15.0 mph 24.2 mph 0.00 in Snow Light Snow
4:17 PM 10.4 °F -3.3 °F 3.2 °F 73% 30.12 in 1.0 mi WNW 10.4 mph 23.0 mph 0.00 in Snow Light Snow
4:32 PM 10.4 °F -6.6 °F 3.2 °F 73% 30.12 in 0.5 mi WNW 16.1 mph 25.3 mph 0.00 in Snow Snow
4:47 PM 10.4 °F -6.6 °F 1.4 °F 67% 30.12 in 1.0 mi WNW 16.1 mph 28.8 mph 0.00 in Snow Light Snow
4:53 PM 10.0 °F -8.1 °F 1.9 °F 70% 30.16 in 0.8 mi WNW 18.4 mph 28.8 mph 0.00 in Snow Light Snow
5:03 PM 10.4 °F -7.2 °F 1.4 °F 67% 30.12 in 1.5 mi WNW 17.3 mph 25.3 mph 0.00 in Snow Light Snow
5:09 PM 10.4 °F -6.6 °F 3.2 °F 73% 30.12 in 0.8 mi WNW 16.1 mph 27.6 mph 0.00 in Snow Light Snow
5:16 PM 10.4 °F -6.0 °F 3.2 °F 73% 30.13 in 0.5 mi WNW 15.0 mph 23.0 mph 0.00 in Snow Snow
5:23 PM 10.4 °F -8.6 °F 3.2 °F 73% 30.13 in 1.0 mi WNW 20.7 mph 28.8 mph 0.00 in Snow Light Snow
5:39 PM 10.4 °F -6.0 °F 1.4 °F 67% 30.12 in 2.0 mi WNW 15.0 mph 25.3 mph 0.00 in Snow Light Snow
5:45 PM 10.4 °F -7.7 °F 1.4 °F 67% 30.13 in 1.0 mi WNW 18.4 mph 32.2 mph 0.00 in Snow Light Snow
5:48 PM 10.4 °F -9.5 °F 3.2 °F 73% 30.13 in 0.5 mi West 23.0 mph 32.2 mph 0.00 in Snow Snow
5:53 PM 10.9 °F -6.5 °F 3.9 °F 73% 30.17 in 0.5 mi WNW 17.3 mph 31.1 mph 0.00 in Snow Snow
5:56 PM 10.4 °F -8.6 °F 3.2 °F 73% 30.13 in 1.0 mi WNW 20.7 mph 31.1 mph 0.00 in Snow Light Snow
5:59 PM 10.4 °F -6.0 °F 1.4 °F 67% 30.12 in 2.0 mi WNW 15.0 mph 26.5 mph 0.00 in Snow Light Snow
6:07 PM 10.4 °F -7.7 °F 1.4 °F 67% 30.13 in 3.0 mi West 18.4 mph 26.5 mph 0.00 in Snow Light Snow
6:22 PM 10.4 °F -6.0 °F 3.2 °F 73% 30.13 in 1.8 mi WNW 15.0 mph 31.1 mph 0.00 in Snow Light Snow
6:32 PM 10.4 °F -7.7 °F -0.4 °F 62% 30.13 in 3.0 mi WNW 18.4 mph 28.8 mph 0.00 in Snow Light Snow
6:39 PM 10.4 °F -5.4 °F -0.4 °F 62% 30.13 in 9.0 mi WNW 13.8 mph 27.6 mph 0.00 in   Overcast
6:53 PM 10.9 °F -6.5 °F -0.0 °F 61% 30.18 in 3.0 mi WNW 17.3 mph 28.8 mph 0.00 in Snow Light Snow
7:08 PM 10.4 °F -6.6 °F 1.4 °F 67% 30.14 in 1.8 mi WNW 16.1 mph 26.5 mph 0.00 in Snow Light Snow
7:18 PM 10.4 °F -7.2 °F -0.4 °F 62% 30.14 in 3.0 mi WNW 17.3 mph 26.5 mph 0.00 in Snow Light Snow
7:25 PM 10.4 °F -7.2 °F -2.2 °F 57% 30.14 in 9.0 mi WNW 17.3 mph 25.3 mph 0.00 in   Overcast
7:39 PM 10.4 °F -7.2 °F 1.4 °F 67% 30.14 in 2.0 mi WNW 17.3 mph 27.6 mph 0.00 in Snow Light Snow
7:43 PM 10.4 °F -6.6 °F 1.4 °F 67% 30.14 in 3.0 mi WNW 16.1 mph 27.6 mph 0.00 in Snow Light Snow
7:49 PM 10.4 °F -6.0 °F 1.4 °F 67% 30.14 in 1.8 mi WNW 15.0 mph 27.6 mph 0.00 in Snow Light Snow
7:53 PM 10.9 °F -5.9 °F 1.9 °F 67% 30.19 in 1.8 mi WNW 16.1 mph 27.6 mph 0.00 in Snow Light Snow
8:07 PM 10.4 °F -6.6 °F 1.4 °F 67% 30.14 in 1.2 mi WNW 16.1 mph 25.3 mph 0.00 in Snow Light Snow
8:10 PM 10.4 °F -6.0 °F -0.4 °F 62% 30.14 in 2.0 mi WNW 15.0 mph 25.3 mph 0.00 in Snow Light Snow
8:18 PM 10.4 °F -4.8 °F 1.4 °F 67% 30.15 in 5.0 mi West 12.7 mph 24.2 mph 0.00 in Snow Light Snow
8:41 PM 10.4 °F -4.8 °F 1.4 °F 67% 30.15 in 2.0 mi WNW 12.7 mph 29.9 mph 0.00 in Snow Light Snow
8:43 PM 10.4 °F -4.8 °F 1.4 °F 67% 30.15 in 3.0 mi NW 12.7 mph 29.9 mph 0.00 in Snow Light Snow
8:53 PM 10.9 °F -6.5 °F 1.0 °F 64% 30.19 in 2.5 mi NW 17.3 mph 32.2 mph 0.00 in Snow Light Snow
9:01 PM 10.4 °F -7.2 °F -0.4 °F 62% 30.15 in 4.0 mi WNW 17.3 mph 32.2 mph 0.00 in Snow Light Snow
9:18 PM 10.4 °F -5.4 °F 1.4 °F 67% 30.15 in 2.5 mi WNW 13.8 mph 29.9 mph 0.00 in Snow Light Snow
9:39 PM 10.4 °F -6.0 °F 1.4 °F 67% 30.16 in 1.2 mi WNW 15.0 mph 25.3 mph 0.00 in Snow Light Snow
9:48 PM 10.4 °F -7.2 °F 3.2 °F 73% 30.16 in 0.8 mi WNW 17.3 mph 26.5 mph 0.00 in Snow Light Snow
9:53 PM 10.0 °F -8.1 °F 3.0 °F 73% 30.21 in 1.5 mi WNW 18.4 mph 26.5 mph 0.00 in Snow Light Snow
10:13 PM 10.4 °F -8.6 °F 3.2 °F 73% 30.17 in 0.8 mi West 20.7 mph 28.8 mph 0.00 in Snow Light Snow
10:30 PM 10.4 °F -6.0 °F 1.4 °F 67% 30.17 in 1.2 mi WNW 15.0 mph 25.3 mph 0.00 in Snow Light Snow
10:33 PM 10.4 °F -4.8 °F 1.4 °F 67% 30.17 in 2.0 mi WNW 12.7 mph 25.3 mph 0.00 in Snow Light Snow
10:40 PM 10.4 °F -7.2 °F 1.4 °F 67% 30.17 in 4.0 mi WNW 17.3 mph 23.0 mph 0.00 in Snow Light Snow
10:49 PM 10.4 °F -6.0 °F 1.4 °F 67% 30.17 in 1.8 mi WNW 15.0 mph 26.5 mph 0.00 in Snow Light Snow
10:53 PM 10.0 °F -6.5 °F 3.0 °F 73% 30.22 in 0.8 mi WNW 15.0 mph 24.2 mph 0.00 in Snow Light Snow
11:06 PM 8.6 °F -7.0 °F 3.2 °F 79% 30.18 in 1.2 mi WNW 12.7 mph 25.3 mph 0.00 in Snow Light Snow
11:15 PM 8.6 °F -8.9 °F 3.2 °F 79% 30.18 in 0.5 mi WNW 16.1 mph 24.2 mph 0.00 in Snow Snow
11:22 PM 8.6 °F -9.5 °F 3.2 °F 79% 30.18 in 0.5 mi WNW 17.3 mph 25.3 mph 0.00 in Snow Snow
11:34 PM 8.6 °F -7.0 °F 5.0 °F 85% 30.19 in 0.5 mi WNW 12.7 mph 23.0 mph 0.00 in Fog , Snow Snow
11:40 PM 8.6 °F -6.3 °F 3.2 °F 79% 30.19 in 1.0 mi NW 11.5 mph 24.2 mph 0.00 in Snow Light Snow
11:44 PM 8.6 °F -8.3 °F 1.4 °F 73% 30.19 in 1.5 mi WNW 15.0 mph 24.2 mph 0.00 in Snow Light Snow
11:48 PM 8.6 °F -9.5 °F -0.4 °F 67% 30.19 in 3.0 mi WNW 17.3 mph 21.9 mph 0.00 in Snow Light Snow
11:53 PM 9.0 °F -5.9 °F -2.0 °F 61% 30.23 in 7.0 mi WNW 11.5 mph 21.9 mph 0.00 in   Overcast